Time;durP1;ratioP1;P1;durP2;ratioP2;P2;SDS_P1;SDS_P2;PMS_P1;PMS_P2;Temp;Humidity;BMP_temperature;BMP_pressure;BME280_temperature;BME280_humidity;BME280_pressure;Samples;Min_cycle;Max_cycle;Signal;HPM_P1;HPM_P2
2023/02/20 00:01:28;;;;;;;5.60;3.90;;;1.40;99.90;;;;;;4922723;29;20226;-81
2023/02/20 00:03:55;;;;;;;7.57;5.55;;;1.40;99.90;;;;;;4922398;29;20272;-81
2023/02/20 00:06:22;;;;;;;10.63;5.82;;;1.40;99.90;;;;;;4943046;29;20220;-82
2023/02/20 00:08:49;;;;;;;9.80;4.80;;;1.40;99.90;;;;;;4934760;29;20200;-81
2023/02/20 00:11:16;;;;;;;11.38;5.32;;;1.40;99.90;;;;;;4944879;28;20276;-80
2023/02/20 00:13:48;;;;;;;9.95;5.07;;;1.50;99.90;;;;;;4948749;28;20207;-81
2023/02/20 00:16:15;;;;;;;5.97;5.20;;;1.40;99.90;;;;;;4949897;28;20188;-80
2023/02/20 00:18:44;;;;;;;10.10;5.18;;;1.50;99.90;;;;;;4938990;29;20200;-81
2023/02/20 00:21:11;;;;;;;7.70;5.13;;;1.60;99.90;;;;;;4941383;29;20221;-80
2023/02/20 00:23:38;;;;;;;7.05;5.10;;;1.80;99.90;;;;;;4932193;29;20235;-80
2023/02/20 00:26:10;;;;;;;7.97;4.40;;;1.80;99.90;;;;;;4927628;29;20408;-80
2023/02/20 00:28:42;;;;;;;9.85;4.30;;;2.00;99.90;;;;;;4929418;29;20216;-80
2023/02/20 00:31:14;;;;;;;9.98;4.50;;;2.10;99.90;;;;;;4924863;29;20240;-82
2023/02/20 00:33:41;;;;;;;6.90;5.03;;;2.10;99.90;;;;;;4933378;29;20211;-82
2023/02/20 00:36:15;;;;;;;6.25;4.22;;;2.10;99.90;;;;;;4929562;29;20211;-81
2023/02/20 00:38:43;;;;;;;8.48;4.40;;;2.10;99.90;;;;;;4933017;29;20221;-83
2023/02/20 00:41:13;;;;;;;5.20;3.65;;;2.20;99.90;;;;;;4938933;29;20284;-82
2023/02/20 00:43:41;;;;;;;9.02;2.97;;;2.30;99.90;;;;;;4929683;29;20538;-82
2023/02/20 00:46:11;;;;;;;9.30;4.75;;;2.50;99.90;;;;;;4932940;29;20205;-82
2023/02/20 00:48:39;;;;;;;12.77;4.20;;;2.60;99.90;;;;;;4939300;29;20232;-83
2023/02/20 00:51:07;;;;;;;11.82;4.65;;;2.80;99.90;;;;;;4933594;29;20233;-82
2023/02/20 00:53:33;;;;;;;6.90;4.22;;;2.90;99.90;;;;;;4927767;29;20564;-81
2023/02/20 00:56:00;;;;;;;8.05;4.03;;;3.00;99.90;;;;;;4934369;29;20553;-82
2023/02/20 00:58:27;;;;;;;7.40;4.70;;;3.10;99.90;;;;;;4935806;29;20217;-81
2023/02/20 01:00:54;;;;;;;5.55;3.50;;;3.00;99.90;;;;;;4933758;29;20223;-81
2023/02/20 01:03:21;;;;;;;7.80;3.60;;;3.00;99.90;;;;;;4927666;29;20517;-82
2023/02/20 01:05:48;;;;;;;4.97;3.92;;;3.00;99.90;;;;;;4931529;29;20514;-82
2023/02/20 01:08:15;;;;;;;7.65;3.80;;;2.90;99.90;;;;;;4933092;29;20219;-82
2023/02/20 01:10:42;;;;;;;4.10;3.33;;;2.90;99.90;;;;;;4930353;29;20293;-83
2023/02/20 01:13:09;;;;;;;10.95;5.35;;;3.00;99.90;;;;;;4934167;29;20249;-82
2023/02/20 01:15:36;;;;;;;10.13;3.67;;;3.00;99.90;;;;;;4926395;29;20574;-82
2023/02/20 01:18:04;;;;;;;6.32;3.25;;;2.90;99.90;;;;;;4925193;29;20514;-82
2023/02/20 01:20:32;;;;;;;5.35;3.15;;;2.70;99.90;;;;;;4938686;29;20220;-83
2023/02/20 01:22:59;;;;;;;8.38;3.45;;;2.60;99.90;;;;;;4940174;29;20195;-82
2023/02/20 01:25:27;;;;;;;5.07;2.92;;;2.60;99.90;;;;;;4956802;29;20236;-82
2023/02/20 01:27:53;;;;;;;5.53;3.15;;;2.60;99.90;;;;;;4945739;29;20264;-82
2023/02/20 01:30:22;;;;;;;4.30;2.60;;;2.60;99.90;;;;;;4957662;29;20287;-80
2023/02/20 01:32:49;;;;;;;8.60;3.63;;;2.90;99.90;;;;;;4928075;29;20229;-80
2023/02/20 01:35:16;;;;;;;3.45;2.65;;;2.90;99.90;;;;;;4925821;29;20199;-80
2023/02/20 01:37:43;;;;;;;3.88;2.40;;;2.90;99.90;;;;;;4924155;29;20252;-81
2023/02/20 01:40:23;;;;;;;7.47;2.28;;;2.90;99.90;;;;;;4932600;29;20212;-81
2023/02/20 01:42:50;;;;;;;5.40;3.05;;;3.20;99.90;;;;;;4928267;29;20222;-82
2023/02/20 01:45:20;;;;;;;6.95;2.40;;;3.00;99.90;;;;;;4931880;29;20213;-81
2023/02/20 01:47:49;;;;;;;9.02;3.45;;;3.20;99.90;;;;;;4919997;29;20214;-81
2023/02/20 01:50:20;;;;;;;4.10;2.42;;;3.20;99.90;;;;;;4926269;29;20236;-82
2023/02/20 01:52:51;;;;;;;5.13;3.50;;;2.80;99.90;;;;;;4923890;29;20217;-82
2023/02/20 01:55:38;;;;;;;4.47;2.97;;;2.70;99.90;;;;;;4926633;29;20207;-82
2023/02/20 01:58:11;;;;;;;4.40;2.50;;;2.70;99.90;;;;;;4924044;29;20439;-81
2023/02/20 02:00:38;;;;;;;4.10;2.70;;;2.70;99.90;;;;;;4924094;29;20253;-82
2023/02/20 02:03:12;;;;;;;6.65;3.25;;;2.80;99.90;;;;;;4929403;29;20498;-81
2023/02/20 02:05:43;;;;;;;7.60;2.83;;;2.80;99.90;;;;;;4935099;29;20273;-82
2023/02/20 02:08:12;;;;;;;6.50;2.85;;;2.90;99.90;;;;;;4923570;29;20444;-81
2023/02/20 02:11:10;;;;;;;3.40;2.22;;;2.90;99.90;;;;;;4923247;29;20222;-81
2023/02/20 02:13:38;;;;;;;5.20;2.45;;;2.90;99.90;;;;;;4926917;29;20229;-81
2023/02/20 02:16:23;;;;;;;6.00;2.40;;;2.80;99.90;;;;;;4924267;29;20211;-81
2023/02/20 02:18:56;;;;;;;4.88;2.53;;;2.80;99.90;;;;;;4929860;29;20194;-80
2023/02/20 02:21:56;;;;;;;6.90;2.55;;;2.80;99.90;;;;;;4943769;29;20193;-81
2023/02/20 02:24:40;;;;;;;3.00;2.30;;;2.80;99.90;;;;;;4927419;29;20213;-81
2023/02/20 02:27:53;;;;;;;7.03;2.53;;;2.70;99.90;;;;;;4932429;29;20268;-80
2023/02/20 02:30:46;;;;;;;4.43;2.20;;;2.60;99.90;;;;;;4927402;29;20258;-81
2023/02/20 02:33:31;;;;;;;6.28;3.55;;;2.60;99.90;;;;;;4924714;29;20202;-81
2023/02/20 02:36:13;;;;;;;2.28;1.90;;;2.40;99.90;;;;;;4920855;29;20314;-81
2023/02/20 02:38:40;;;;;;;3.88;2.63;;;2.30;99.90;;;;;;4925504;29;20270;-81
2023/02/20 02:41:19;;;;;;;3.28;1.85;;;2.20;99.90;;;;;;4925804;29;20561;-82
2023/02/20 02:44:06;;;;;;;3.83;1.95;;;2.30;99.90;;;;;;4935262;29;20258;-82
2023/02/20 02:46:39;;;;;;;2.42;2.10;;;2.40;99.90;;;;;;4930702;29;20204;-82
2023/02/20 02:49:28;;;;;;;5.30;2.13;;;2.40;99.90;;;;;;4921366;29;20257;-82
2023/02/20 02:51:56;;;;;;;3.67;2.08;;;2.40;99.90;;;;;;4916402;29;20245;-82
2023/02/20 02:54:25;;;;;;;10.85;4.05;;;2.30;99.90;;;;;;4927826;29;20242;-82
2023/02/20 02:57:13;;;;;;;6.43;1.88;;;2.30;99.90;;;;;;4931781;29;20192;-82
2023/02/20 02:59:41;;;;;;;4.10;2.03;;;2.30;99.90;;;;;;4944438;29;20225;-81
2023/02/20 03:02:13;;;;;;;2.00;1.75;;;2.00;99.90;;;;;;4935907;29;20241;-82
2023/02/20 03:04:43;;;;;;;5.88;2.72;;;2.00;99.90;;;;;;4924027;29;20289;-81
2023/02/20 03:07:14;;;;;;;4.40;1.77;;;2.10;99.90;;;;;;4924706;29;20200;-82
2023/02/20 03:09:49;;;;;;;3.58;1.98;;;2.30;99.90;;;;;;4927639;29;20275;-83
2023/02/20 03:12:18;;;;;;;5.03;1.73;;;2.40;99.90;;;;;;4930804;29;20207;-81
2023/02/20 03:15:34;;;;;;;5.32;2.20;;;2.50;99.90;;;;;;4927535;29;20270;-82
2023/02/20 03:18:09;;;;;;;3.72;1.75;;;2.40;99.90;;;;;;4924307;29;20209;-81
2023/02/20 03:20:41;;;;;;;4.07;2.20;;;2.50;99.90;;;;;;4918434;29;20245;-80
2023/02/20 03:23:12;;;;;;;2.50;1.92;;;2.50;99.90;;;;;;4921619;29;20265;-81
2023/02/20 03:25:53;;;;;;;4.85;2.60;;;2.60;99.90;;;;;;4921640;29;20225;-81
2023/02/20 03:28:45;;;;;;;4.55;2.15;;;2.50;99.90;;;;;;4918561;29;20200;-81
2023/02/20 03:31:35;;;;;;;7.35;2.58;;;2.50;99.90;;;;;;4921562;29;20226;-81
2023/02/20 03:45:40;;;;;;;5.05;2.45;;;3.20;99.90;;;;;;4930173;29;20259;-81
2023/02/20 03:48:20;;;;;;;5.70;2.30;;;3.20;99.90;;;;;;4921986;29;20528;-81
2023/02/20 03:53:33;;;;;;;4.47;3.25;;;3.10;99.90;;;;;;4925721;29;20202;-81
2023/02/20 03:56:03;;;;;;;5.28;2.13;;;3.10;99.90;;;;;;4926149;29;20205;-82
2023/02/20 03:58:36;;;;;;;3.88;2.50;;;3.20;99.90;;;;;;4932937;29;20566;-81
2023/02/20 04:01:08;;;;;;;6.13;3.20;;;3.20;99.90;;;;;;4922238;29;20206;-81
2023/02/20 04:03:40;;;;;;;5.80;2.20;;;3.30;99.90;;;;;;4921865;29;20213;-81
2023/02/20 04:06:09;;;;;;;3.25;2.33;;;3.20;99.90;;;;;;4923229;29;20203;-80
2023/02/20 04:08:51;;;;;;;2.67;1.80;;;3.20;99.90;;;;;;4928703;29;20230;-81
2023/02/20 04:11:27;;;;;;;2.78;2.22;;;3.10;99.90;;;;;;4929367;29;20230;-82
2023/02/20 04:13:55;;;;;;;2.65;2.08;;;2.80;99.90;;;;;;4944374;28;20190;-81
2023/02/20 04:16:23;;;;;;;3.30;2.13;;;2.70;99.90;;;;;;4949561;29;20245;-81
2023/02/20 04:18:50;;;;;;;4.85;3.20;;;2.80;99.90;;;;;;4931515;29;20215;-83
2023/02/20 04:21:30;;;;;;;5.88;3.00;;;2.70;99.90;;;;;;4930492;29;20213;-81
2023/02/20 04:24:08;;;;;;;4.22;3.08;;;2.70;99.90;;;;;;4921328;29;20253;-83
2023/02/20 04:26:36;;;;;;;6.63;2.60;;;2.60;99.90;;;;;;4922297;29;20217;-83
2023/02/20 04:29:04;;;;;;;5.07;4.63;;;2.70;99.90;;;;;;4922035;29;20211;-82
2023/02/20 04:31:31;;;;;;;5.43;3.25;;;2.70;99.90;;;;;;4928250;29;20233;-83
2023/02/20 04:33:58;;;;;;;6.82;4.18;;;3.10;99.90;;;;;;4922247;29;20244;-83
2023/02/20 04:36:25;;;;;;;5.28;3.28;;;3.20;99.90;;;;;;4924722;29;20217;-83
2023/02/20 04:38:52;;;;;;;3.72;2.58;;;3.30;99.90;;;;;;4926204;29;20230;-83
2023/02/20 04:41:20;;;;;;;6.15;2.33;;;3.30;99.90;;;;;;4928448;29;20244;-82
2023/02/20 04:43:48;;;;;;;7.35;2.60;;;3.10;99.90;;;;;;4930113;29;20258;-81
2023/02/20 04:46:15;;;;;;;6.30;2.53;;;3.30;99.90;;;;;;4926770;29;20221;-83
2023/02/20 04:48:42;;;;;;;3.33;2.80;;;3.40;99.90;;;;;;4933150;29;20210;-82
2023/02/20 04:51:09;;;;;;;2.42;2.10;;;3.40;99.90;;;;;;4933552;29;20557;-82
2023/02/20 04:53:37;;;;;;;4.35;2.60;;;3.40;99.90;;;;;;4929551;29;20214;-82
2023/02/20 04:56:04;;;;;;;4.55;2.65;;;3.40;99.90;;;;;;4932587;29;20261;-82
2023/02/20 04:58:32;;;;;;;3.22;2.50;;;3.50;99.90;;;;;;4933374;29;20219;-82
2023/02/20 05:01:00;;;;;;;6.03;2.88;;;3.40;99.90;;;;;;4914383;29;20254;-81
2023/02/20 05:03:27;;;;;;;3.55;2.35;;;3.50;99.90;;;;;;4926098;29;20234;-81
2023/02/20 05:05:54;;;;;;;6.53;2.88;;;3.50;99.90;;;;;;4925172;29;20214;-82
2023/02/20 05:08:22;;;;;;;3.40;3.10;;;3.50;99.90;;;;;;4933000;29;20217;-82
2023/02/20 05:10:50;;;;;;;16.30;6.68;;;3.50;99.90;;;;;;4934360;29;20233;-82
2023/02/20 05:13:17;;;;;;;8.48;3.38;;;3.40;99.90;;;;;;4941348;29;20539;-83
2023/02/20 05:15:44;;;;;;;3.97;2.80;;;3.50;99.90;;;;;;4934011;29;20261;-83
2023/02/20 05:18:11;;;;;;;8.05;3.92;;;3.60;99.90;;;;;;4944520;28;20199;-81
2023/02/20 05:23:24;;;;;;;5.93;3.78;;;3.60;99.90;;;;;;4935143;29;20243;-82
2023/02/20 05:25:53;;;;;;;4.90;2.90;;;3.60;99.90;;;;;;4925823;29;20218;-83
2023/02/20 05:28:20;;;;;;;5.78;4.00;;;3.60;99.90;;;;;;4931408;29;20207;-81
2023/02/20 05:30:47;;;;;;;6.60;3.78;;;3.60;99.90;;;;;;4926500;29;20239;-83
2023/02/20 05:33:14;;;;;;;10.27;4.20;;;3.60;99.90;;;;;;4937995;29;20281;-82
2023/02/20 05:35:42;;;;;;;8.95;3.55;;;3.70;99.90;;;;;;4946554;28;20222;-80
2023/02/20 05:38:16;;;;;;;5.60;3.97;;;3.60;99.90;;;;;;4948807;28;20257;-81
2023/02/20 05:40:43;;;;;;;5.53;3.65;;;3.60;99.90;;;;;;4930624;29;20188;-82
2023/02/20 05:43:10;;;;;;;5.15;4.10;;;3.60;99.90;;;;;;4937887;29;20250;-82
2023/02/20 05:45:38;;;;;;;6.60;4.07;;;3.80;99.90;;;;;;4939472;29;20273;-80
2023/02/20 05:48:04;;;;;;;3.58;3.28;;;3.90;99.90;;;;;;4927940;29;20207;-84
2023/02/20 05:50:32;;;;;;;4.75;3.28;;;3.90;99.90;;;;;;4925790;29;20258;-82
2023/02/20 05:52:59;;;;;;;4.97;3.78;;;3.90;99.90;;;;;;4937363;29;20284;-82
2023/02/20 05:55:26;;;;;;;6.65;3.95;;;3.90;99.90;;;;;;4930074;29;20226;-84
2023/02/20 05:57:53;;;;;;;4.70;2.80;;;4.00;99.90;;;;;;4934224;29;20251;-83
2023/02/20 06:00:20;;;;;;;4.55;3.35;;;3.90;99.90;;;;;;4929615;29;20235;-83
2023/02/20 06:02:47;;;;;;;4.53;3.55;;;4.10;99.90;;;;;;4945987;29;20214;-83
2023/02/20 06:05:15;;;;;;;5.57;2.97;;;4.10;99.90;;;;;;4923772;29;20475;-82
2023/02/20 06:07:45;;;;;;;6.72;4.35;;;4.00;99.90;;;;;;4924509;29;20219;-81
2023/02/20 06:10:17;;;;;;;7.80;3.85;;;4.10;99.90;;;;;;4923954;29;20214;-83
2023/02/20 06:12:43;;;;;;;6.15;4.90;;;4.20;99.90;;;;;;4937268;29;20230;-83
2023/02/20 06:15:10;;;;;;;6.07;4.60;;;4.20;99.90;;;;;;4933361;29;20222;-83
2023/02/20 06:17:37;;;;;;;6.28;4.18;;;4.20;99.90;;;;;;4941085;29;20242;-83
2023/02/20 06:20:05;;;;;;;6.32;3.88;;;4.20;99.90;;;;;;4931644;29;20282;-83
2023/02/20 06:22:32;;;;;;;3.88;3.53;;;4.20;99.90;;;;;;4930268;29;20227;-83
2023/02/20 06:24:58;;;;;;;5.47;3.72;;;4.40;99.90;;;;;;4929320;29;20206;-83
2023/02/20 06:27:26;;;;;;;7.80;5.55;;;4.40;99.90;;;;;;4930276;29;20242;-84
2023/02/20 06:29:54;;;;;;;7.93;4.30;;;4.40;99.90;;;;;;4953641;28;20205;-83
2023/02/20 06:32:22;;;;;;;5.45;4.25;;;4.40;99.90;;;;;;4927749;28;20540;-83
2023/02/20 06:34:49;;;;;;;6.50;4.57;;;4.50;99.90;;;;;;4939083;29;20414;-83
2023/02/20 06:37:16;;;;;;;7.93;4.40;;;4.90;99.90;;;;;;4927019;29;20256;-83
2023/02/20 06:39:45;;;;;;;18.90;5.60;;;5.00;99.90;;;;;;4930028;29;20224;-83
2023/02/20 06:42:12;;;;;;;5.78;4.35;;;5.30;99.90;;;;;;4922720;29;20213;-82
2023/02/20 06:44:39;;;;;;;10.50;4.10;;;5.40;99.90;;;;;;4922751;29;20455;-84
2023/02/20 06:47:07;;;;;;;5.43;4.90;;;5.40;99.90;;;;;;4920424;29;20322;-81
2023/02/20 06:49:35;;;;;;;8.15;5.20;;;5.50;99.90;;;;;;4926998;29;20273;-81
2023/02/20 06:52:04;;;;;;;4.88;3.80;;;5.60;99.90;;;;;;4936337;29;20279;-81
2023/02/20 06:54:33;;;;;;;7.80;4.13;;;5.40;99.90;;;;;;4922798;29;20250;-81
2023/02/20 06:57:00;;;;;;;5.43;3.60;;;5.30;99.90;;;;;;4928612;29;20263;-81
2023/02/20 06:59:27;;;;;;;5.50;4.05;;;5.20;99.90;;;;;;4928528;29;20538;-81
2023/02/20 07:01:55;;;;;;;5.20;3.53;;;5.10;99.90;;;;;;4929571;29;20275;-82
2023/02/20 07:04:27;;;;;;;6.45;3.80;;;5.50;99.90;;;;;;4933206;29;20196;-82
2023/02/20 07:06:55;;;;;;;4.75;4.20;;;5.60;99.90;;;;;;4928485;29;20204;-82
2023/02/20 07:09:24;;;;;;;7.35;4.55;;;5.60;99.90;;;;;;4926056;29;20204;-82
2023/02/20 07:11:54;;;;;;;7.97;5.28;;;5.70;99.90;;;;;;4941010;29;20267;-82
2023/02/20 07:14:21;;;;;;;3.58;3.28;;;5.80;99.90;;;;;;4931696;28;20204;-82
2023/02/20 07:16:48;;;;;;;3.83;3.53;;;5.70;99.90;;;;;;4926114;29;20247;-81
2023/02/20 07:19:15;;;;;;;9.32;4.15;;;5.70;99.90;;;;;;4933276;29;20523;-82
2023/02/20 07:21:45;;;;;;;6.22;4.13;;;5.70;99.90;;;;;;4936741;29;20214;-82
2023/02/20 07:24:12;;;;;;;9.27;4.65;;;5.80;99.90;;;;;;4924050;29;20211;-82
2023/02/20 07:26:39;;;;;;;9.95;4.00;;;5.90;99.90;;;;;;4923456;29;20212;-83
2023/02/20 07:29:07;;;;;;;5.65;4.18;;;6.00;99.90;;;;;;4932646;29;20253;-81
2023/02/20 07:31:33;;;;;;;6.68;4.68;;;6.00;99.90;;;;;;4930716;29;20235;-79
2023/02/20 07:34:02;;;;;;;4.88;3.95;;;5.80;99.90;;;;;;4928025;29;20381;-81
2023/02/20 07:36:29;;;;;;;6.45;3.97;;;5.70;99.90;;;;;;4928776;29;20256;-81
2023/02/20 07:39:01;;;;;;;6.80;3.70;;;5.80;99.90;;;;;;4931257;29;20212;-80
2023/02/20 07:41:34;;;;;;;4.43;3.88;;;5.80;99.90;;;;;;4918584;29;20519;-81
2023/02/20 07:44:02;;;;;;;8.85;4.55;;;5.70;99.90;;;;;;4930144;29;20251;-82
2023/02/20 07:46:32;;;;;;;5.68;4.10;;;5.90;99.90;;;;;;4928014;29;20235;-84
2023/02/20 07:49:02;;;;;;;4.45;3.45;;;6.10;99.90;;;;;;4932443;29;20497;-84
2023/02/20 07:51:30;;;;;;;5.60;4.05;;;6.20;99.90;;;;;;4929940;29;20297;-83
2023/02/20 07:53:57;;;;;;;7.32;3.75;;;6.30;99.90;;;;;;4927084;29;20350;-81
2023/02/20 07:56:24;;;;;;;6.00;3.53;;;6.40;99.90;;;;;;4942869;29;20228;-82
2023/02/20 07:58:51;;;;;;;5.07;4.03;;;6.70;99.90;;;;;;4926925;29;20558;-81
2023/02/20 08:01:19;;;;;;;4.20;3.80;;;7.00;99.90;;;;;;4924440;29;20252;-80
2023/02/20 08:03:46;;;;;;;4.53;3.67;;;7.00;99.90;;;;;;4927252;29;20236;-82
2023/02/20 08:06:18;;;;;;;5.80;3.90;;;7.00;99.90;;;;;;4928746;29;20302;-82
2023/02/20 08:08:49;;;;;;;5.93;4.97;;;7.10;99.90;;;;;;4930598;29;20257;-82
2023/02/20 08:11:18;;;;;;;5.07;4.43;;;7.10;99.90;;;;;;4925047;29;20275;-81
2023/02/20 08:13:45;;;;;;;4.05;3.28;;;7.20;99.90;;;;;;4924665;29;20208;-80
2023/02/20 08:16:12;;;;;;;6.55;4.35;;;7.30;99.90;;;;;;4933078;29;20204;-81
2023/02/20 08:18:40;;;;;;;5.88;4.10;;;7.30;99.90;;;;;;4936207;29;20223;-82
2023/02/20 08:21:07;;;;;;;10.23;5.70;;;7.40;99.90;;;;;;4927467;29;20201;-82
2023/02/20 08:23:34;;;;;;;6.70;4.50;;;7.30;99.90;;;;;;4943011;28;20196;-80
2023/02/20 08:26:03;;;;;;;5.20;3.90;;;7.40;99.90;;;;;;4937407;29;20201;-82
2023/02/20 08:28:30;;;;;;;10.23;6.13;;;7.60;99.90;;;;;;4928363;29;20225;-80
2023/02/20 08:30:57;;;;;;;7.63;4.95;;;7.90;99.90;;;;;;4929470;29;20223;-81
2023/02/20 08:33:24;;;;;;;11.48;5.65;;;8.00;99.90;;;;;;4925578;29;20299;-81
2023/02/20 08:35:52;;;;;;;6.43;4.80;;;8.10;99.90;;;;;;4926503;29;20216;-82
2023/02/20 08:38:29;;;;;;;7.07;5.00;;;8.20;99.90;;;;;;4932246;29;20213;-82
2023/02/20 08:40:57;;;;;;;5.68;4.95;;;8.50;99.90;;;;;;4931726;29;20208;-81
2023/02/20 08:43:28;;;;;;;7.55;5.22;;;8.50;99.90;;;;;;4938323;29;20395;-83
2023/02/20 08:45:57;;;;;;;12.18;5.57;;;8.50;99.90;;;;;;4942814;28;20206;-82
2023/02/20 08:48:24;;;;;;;6.38;4.95;;;8.60;99.90;;;;;;4935577;29;20413;-82
2023/02/20 08:50:52;;;;;;;8.73;4.70;;;8.50;99.90;;;;;;4920517;29;20260;-81
2023/02/20 08:53:19;;;;;;;6.47;4.50;;;8.40;99.90;;;;;;4929873;29;20531;-82
2023/02/20 08:55:46;;;;;;;5.90;4.38;;;8.60;99.90;;;;;;4935485;29;20213;-82
2023/02/20 08:58:17;;;;;;;11.40;5.15;;;8.80;99.90;;;;;;4932461;29;20270;-82
2023/02/20 09:00:44;;;;;;;8.23;5.93;;;9.10;99.90;;;;;;4937312;29;20215;-83
2023/02/20 09:03:11;;;;;;;6.80;5.60;;;9.40;99.90;;;;;;4930528;29;20207;-82
2023/02/20 09:05:38;;;;;;;6.65;5.32;;;9.70;99.90;;;;;;4940952;29;20333;-82
2023/02/20 09:08:05;;;;;;;6.55;5.25;;;9.70;99.90;;;;;;4924987;29;20495;-81
2023/02/20 09:10:32;;;;;;;6.88;4.20;;;9.70;99.90;;;;;;4919006;29;20215;-82
2023/02/20 09:12:59;;;;;;;6.90;4.88;;;9.50;99.90;;;;;;4927253;29;20369;-82
2023/02/20 09:15:26;;;;;;;6.95;5.30;;;9.50;99.90;;;;;;4922933;29;20254;-82
2023/02/20 09:17:54;;;;;;;6.07;4.65;;;9.40;99.90;;;;;;4923465;29;20388;-80
2023/02/20 09:20:21;;;;;;;5.03;4.07;;;9.30;99.90;;;;;;4931374;29;20259;-81
2023/02/20 09:22:49;;;;;;;11.27;4.72;;;9.40;99.90;;;;;;4923459;29;20219;-80
2023/02/20 09:25:18;;;;;;;7.78;5.95;;;9.60;99.90;;;;;;4922461;29;20276;-82
2023/02/20 09:27:45;;;;;;;7.25;4.18;;;9.90;99.90;;;;;;4922085;29;20432;-82
2023/02/20 09:30:18;;;;;;;4.80;3.83;;;10.20;99.90;;;;;;4927231;29;20516;-82
2023/02/20 09:32:46;;;;;;;5.55;4.32;;;10.00;99.90;;;;;;4926389;29;20425;-81
2023/02/20 09:35:20;;;;;;;7.03;4.07;;;10.00;99.90;;;;;;4923536;29;20212;-81
2023/02/20 09:37:47;;;;;;;7.13;4.78;;;10.10;99.90;;;;;;4921678;29;20215;-81
2023/02/20 09:40:14;;;;;;;10.77;5.65;;;10.40;99.90;;;;;;4924801;29;20519;-81
2023/02/20 09:42:54;;;;;;;8.07;5.90;;;10.60;99.90;;;;;;4921403;29;20255;-83
2023/02/20 09:45:25;;;;;;;8.70;7.30;;;10.70;99.90;;;;;;4922093;29;20204;-82
2023/02/20 09:48:07;;;;;;;7.78;4.97;;;10.70;99.90;;;;;;4918653;29;20212;-82
2023/02/20 09:51:17;;;;;;;4.85;3.65;;;10.90;99.90;;;;;;4926979;29;20208;-82
2023/02/20 09:54:01;;;;;;;7.53;4.00;;;10.70;99.90;;;;;;4928068;29;20452;-81
2023/02/20 09:56:35;;;;;;;5.10;3.97;;;10.80;99.90;;;;;;4925899;29;20233;-81
2023/02/20 09:59:19;;;;;;;4.60;4.10;;;10.80;99.90;;;;;;4929812;29;20536;-81
2023/02/20 10:01:55;;;;;;;6.63;4.97;;;10.50;99.90;;;;;;4920071;29;20212;-82
2023/02/20 10:04:45;;;;;;;6.80;5.10;;;10.50;99.90;;;;;;4915450;29;20203;-82
2023/02/20 10:07:35;;;;;;;8.77;4.25;;;10.60;99.90;;;;;;4918346;29;20215;-82
2023/02/20 10:10:32;;;;;;;6.75;4.35;;;10.60;99.90;;;;;;4918335;29;20542;-82
2023/02/20 10:13:17;;;;;;;5.75;4.68;;;10.50;99.90;;;;;;4926425;29;20234;-80
2023/02/20 10:16:02;;;;;;;6.10;4.68;;;10.50;99.90;;;;;;4925922;29;20214;-80
2023/02/20 10:18:49;;;;;;;4.03;3.50;;;10.50;99.90;;;;;;4918910;29;20207;-81
2023/02/20 10:21:53;;;;;;;7.32;4.07;;;10.70;99.90;;;;;;4917601;29;20199;-82
2023/02/20 10:24:29;;;;;;;8.52;4.43;;;10.90;99.90;;;;;;4933399;28;20194;-82
2023/02/20 10:27:19;;;;;;;9.05;4.22;;;11.10;99.90;;;;;;4936754;28;20242;-84
2023/02/20 10:29:46;;;;;;;6.10;5.05;;;11.30;99.90;;;;;;4932638;29;20266;-84
2023/02/20 10:32:19;;;;;;;10.13;3.78;;;11.60;99.90;;;;;;4926460;29;20259;-83
2023/02/20 10:35:11;;;;;;;6.22;4.00;;;11.70;99.90;;;;;;4926552;29;20239;-82
2023/02/20 10:37:46;;;;;;;7.68;5.05;;;11.70;99.90;;;;;;4924542;29;20272;-83
2023/02/20 10:40:20;;;;;;;3.72;3.33;;;11.70;99.90;;;;;;4925481;29;20694;-84
2023/02/20 10:43:06;;;;;;;5.70;3.08;;;11.80;99.90;;;;;;4925531;29;20554;-84
2023/02/20 10:45:46;;;;;;;6.38;4.00;;;11.70;99.90;;;;;;4931297;29;20396;-84
2023/02/20 10:48:16;;;;;;;5.30;3.97;;;11.90;99.90;;;;;;4923754;29;20204;-84
2023/02/20 10:51:05;;;;;;;4.05;3.03;;;12.00;99.90;;;;;;4928462;29;20207;-83
2023/02/20 10:53:46;;;;;;;4.30;3.50;;;12.30;99.90;;;;;;4934107;29;20248;-82
2023/02/20 10:56:35;;;;;;;5.60;3.38;;;12.40;99.90;;;;;;4929224;29;20235;-82
2023/02/20 10:59:11;;;;;;;6.93;3.80;;;12.70;99.90;;;;;;4947485;28;20377;-83
2023/02/20 11:01:39;;;;;;;4.93;4.00;;;12.80;99.90;;;;;;4932786;29;20200;-84
2023/02/20 11:04:26;;;;;;;7.07;4.10;;;12.80;99.90;;;;;;4926270;29;20433;-84
2023/02/20 11:06:57;;;;;;;8.43;3.50;;;12.40;99.90;;;;;;4934105;29;20212;-83
2023/02/20 11:09:27;;;;;;;6.28;3.72;;;12.30;99.90;;;;;;4920973;29;20212;-83
2023/02/20 11:11:56;;;;;;;3.88;3.22;;;12.40;99.90;;;;;;4926695;29;20378;-84
2023/02/20 11:14:27;;;;;;;4.60;2.63;;;12.40;99.90;;;;;;4935417;29;20211;-83
2023/02/20 11:17:18;;;;;;;7.78;3.85;;;12.30;99.90;;;;;;4932159;29;20208;-83
2023/02/20 11:19:53;;;;;;;7.78;4.03;;;12.40;99.90;;;;;;4922941;29;20287;-85
2023/02/20 11:22:48;;;;;;;5.35;3.50;;;12.40;99.90;;;;;;4915883;29;20203;-83
2023/02/20 11:25:20;;;;;;;7.13;4.50;;;12.70;99.90;;;;;;4926359;29;20215;-84
2023/02/20 11:27:50;;;;;;;7.80;4.35;;;12.80;99.90;;;;;;4916927;29;20204;-83
2023/02/20 11:30:35;;;;;;;5.65;3.30;;;13.10;99.90;;;;;;4931768;29;20204;-83
2023/02/20 11:33:02;;;;;;;3.88;3.47;;;13.40;99.90;;;;;;4939629;29;20263;-82
2023/02/20 11:35:34;;;;;;;4.03;3.38;;;13.30;99.90;;;;;;4931702;29;20250;-83
2023/02/20 11:38:22;;;;;;;8.57;4.43;;;13.20;99.90;;;;;;4924418;29;20220;-83
2023/02/20 11:40:52;;;;;;;6.55;2.95;;;13.40;99.90;;;;;;4936970;29;20212;-83
2023/02/20 11:43:38;;;;;;;2.67;1.65;;;13.20;99.90;;;;;;4934729;29;20250;-83
2023/02/20 11:46:22;;;;;;;2.30;1.92;;;13.20;99.90;;;;;;4924076;29;20224;-81
2023/02/20 11:48:53;;;;;;;2.85;2.25;;;13.20;99.90;;;;;;4926073;29;20200;-83
2023/02/20 11:51:38;;;;;;;3.20;2.10;;;13.20;99.90;;;;;;4930447;29;20205;-83
2023/02/20 11:54:14;;;;;;;2.63;1.90;;;13.10;99.90;;;;;;4926292;29;20478;-82
2023/02/20 11:56:55;;;;;;;3.28;2.08;;;13.10;99.90;;;;;;4926665;29;20222;-82
2023/02/20 11:59:26;;;;;;;2.50;1.73;;;13.10;99.90;;;;;;4930738;29;20213;-83
2023/02/20 12:01:53;;;;;;;5.03;1.85;;;13.10;99.90;;;;;;4932959;29;20211;-84
2023/02/20 12:04:27;;;;;;;2.70;2.50;;;13.20;99.90;;;;;;4919449;29;20212;-83
2023/02/20 12:06:54;;;;;;;3.50;2.33;;;13.20;99.90;;;;;;4935614;29;20212;-83
2023/02/20 12:09:27;;;;;;;1.90;1.67;;;13.00;99.90;;;;;;4920823;29;20192;-82
2023/02/20 12:11:56;;;;;;;3.88;2.50;;;12.90;99.90;;;;;;4945831;29;20181;-83
2023/02/20 12:14:23;;;;;;;26.08;4.20;;;13.00;99.90;;;;;;4926642;29;20199;-81
2023/02/20 12:17:15;;;;;;;3.33;1.85;;;13.10;99.90;;;;;;4945719;28;20208;-82
2023/02/20 12:20:17;;;;;;;4.07;2.40;;;13.00;99.90;;;;;;4940551;28;20203;-83
2023/02/20 12:23:13;;;;;;;3.35;2.38;;;12.90;99.90;;;;;;4938676;28;20188;-82
2023/02/20 12:26:00;;;;;;;4.65;2.53;;;13.00;99.90;;;;;;4934779;29;20204;-83
2023/02/20 12:28:39;;;;;;;5.25;2.20;;;13.10;99.90;;;;;;4941254;28;20196;-83
2023/02/20 12:31:32;;;;;;;5.78;3.08;;;13.00;99.90;;;;;;4944027;29;20235;-83
2023/02/20 12:34:24;;;;;;;1.63;1.50;;;12.80;99.90;;;;;;4939337;28;20212;-84
2023/02/20 12:37:14;;;;;;;3.45;2.00;;;13.00;99.90;;;;;;4946333;28;20255;-82
2023/02/20 12:39:57;;;;;;;4.63;2.10;;;12.70;99.90;;;;;;4937442;29;20199;-83
2023/02/20 12:42:30;;;;;;;4.55;1.90;;;12.70;99.90;;;;;;4942897;28;20246;-83
2023/02/20 12:45:17;;;;;;;3.15;1.70;;;12.70;99.90;;;;;;4939488;28;20394;-83
2023/02/20 12:47:45;;;;;;;1.70;1.60;;;12.60;99.90;;;;;;4920941;29;20248;-83
2023/02/20 12:50:29;;;;;;;2.17;2.00;;;12.60;99.90;;;;;;4923436;29;20492;-82
2023/02/20 12:53:08;;;;;;;4.32;2.33;;;12.70;99.90;;;;;;4927752;29;20239;-82
2023/02/20 12:55:51;;;;;;;4.30;3.22;;;12.80;99.90;;;;;;4920725;29;20212;-82
2023/02/20 12:58:45;;;;;;;6.95;3.40;;;13.00;99.90;;;;;;4929928;29;20205;-81
2023/02/20 13:01:14;;;;;;;2.83;2.63;;;13.10;99.90;;;;;;4927480;29;20633;-82
2023/02/20 13:03:57;;;;;;;4.20;3.03;;;13.00;99.90;;;;;;4921679;29;20719;-82
2023/02/20 13:07:12;;;;;;;4.63;3.40;;;12.80;99.90;;;;;;4921207;29;20208;-82
2023/02/20 13:09:57;;;;;;;4.00;2.80;;;12.70;99.90;;;;;;4906001;29;20221;-84
2023/02/20 13:12:24;;;;;;;6.70;2.90;;;12.60;99.90;;;;;;4931486;29;20191;-84
2023/02/20 13:15:22;;;;;;;6.13;3.88;;;12.60;99.90;;;;;;4938604;29;20213;-84
2023/02/20 13:17:52;;;;;;;6.88;3.72;;;12.50;99.90;;;;;;4923264;29;20208;-84
2023/02/20 13:20:23;;;;;;;3.45;3.15;;;12.50;99.90;;;;;;4925529;29;20464;-82
2023/02/20 13:23:16;;;;;;;5.22;4.03;;;12.50;99.90;;;;;;4927087;29;20201;-83
2023/02/20 13:25:50;;;;;;;7.03;3.95;;;12.60;99.90;;;;;;4926766;29;20204;-83
2023/02/20 13:28:24;;;;;;;4.80;3.97;;;12.60;99.90;;;;;;4940423;29;20589;-83
2023/02/20 13:31:08;;;;;;;5.05;3.83;;;12.70;99.90;;;;;;4926322;29;20259;-83
2023/02/20 13:33:37;;;;;;;5.07;3.83;;;13.00;99.90;;;;;;4938356;29;20223;-83
2023/02/20 13:36:13;;;;;;;4.85;3.20;;;13.00;99.90;;;;;;4922963;29;20540;-83
2023/02/20 13:38:41;;;;;;;3.92;2.97;;;13.00;99.90;;;;;;4930719;29;20428;-83
2023/02/20 13:41:10;;;;;;;10.07;3.17;;;12.90;99.90;;;;;;4930575;29;20216;-82